createdAt,value
2023-04-16T00:01:27.186Z,79.96
2023-04-16T00:03:56.127Z,80.02
2023-04-16T00:06:24.915Z,79.87
2023-04-16T00:08:54.571Z,80.09
2023-04-16T00:11:23.269Z,80.06
2023-04-16T00:13:51.569Z,80.15
2023-04-16T00:16:19.884Z,79.93
2023-04-16T00:18:48.223Z,79.65
2023-04-16T00:21:16.632Z,80.71
2023-04-16T00:23:44.962Z,80.29
2023-04-16T00:26:14.678Z,80.58
2023-04-16T00:28:45.446Z,80.98
2023-04-16T00:31:13.928Z,80.54
2023-04-16T00:33:42.418Z,80.30
2023-04-16T00:36:11.146Z,80.36
2023-04-16T00:38:39.463Z,80.13
2023-04-16T00:41:07.821Z,80.27
2023-04-16T00:43:37.572Z,79.92
2023-04-16T00:46:07.812Z,79.58
2023-04-16T00:48:37.229Z,80.04
2023-04-16T00:51:07.736Z,80.25
2023-04-16T00:53:36.975Z,79.45
2023-04-16T00:56:08.342Z,79.34
2023-04-16T00:58:38.656Z,79.72
2023-04-16T01:01:07.387Z,79.50
2023-04-16T01:03:41.188Z,79.99
2023-04-16T01:06:10.055Z,80.26
2023-04-16T01:08:38.408Z,80.14
2023-04-16T01:11:07.629Z,80.12
2023-04-16T01:13:39.303Z,79.91
2023-04-16T01:16:08.748Z,79.62
2023-04-16T01:18:37.655Z,79.95
2023-04-16T01:21:07.844Z,79.93
2023-04-16T01:23:36.489Z,80.10
2023-04-16T01:26:05.211Z,81.18
2023-04-16T01:28:33.622Z,81.07
2023-04-16T01:31:01.992Z,80.78
2023-04-16T01:33:40.451Z,81.07
2023-04-16T01:36:10.510Z,81.26
2023-04-16T01:38:38.825Z,81.13
2023-04-16T01:41:07.135Z,82.16
2023-04-16T01:43:38.972Z,82.38
2023-04-16T01:46:16.622Z,82.64
2023-04-16T01:48:45.050Z,82.47
2023-04-16T01:51:14.679Z,83.11
2023-04-16T01:53:42.972Z,83.17
2023-04-16T01:56:11.266Z,82.88
2023-04-16T01:58:39.805Z,82.39
2023-04-16T02:01:08.128Z,82.64
2023-04-16T02:03:37.150Z,82.69
2023-04-16T02:06:06.109Z,82.84
2023-04-16T02:08:35.952Z,82.36
2023-04-16T02:11:04.311Z,82.29
2023-04-16T02:13:32.649Z,82.76
2023-04-16T02:16:00.990Z,82.43
2023-04-16T02:18:42.804Z,82.15
2023-04-16T02:21:11.742Z,83.14
2023-04-16T02:23:41.779Z,83.46
2023-04-16T02:26:10.693Z,83.28
2023-04-16T02:28:39.684Z,83.37
2023-04-16T02:31:11.059Z,83.62
2023-04-16T02:33:44.452Z,84.29
2023-04-16T02:36:13.186Z,84.42
2023-04-16T02:38:42.854Z,83.71
2023-04-16T02:41:11.415Z,83.74
2023-04-16T02:43:39.812Z,83.36
2023-04-16T02:46:08.237Z,83.19
2023-04-16T02:48:36.731Z,83.13
2023-04-16T02:51:05.382Z,82.61
2023-04-16T02:53:33.658Z,82.35
2023-04-16T02:56:03.532Z,82.30
2023-04-16T02:58:31.939Z,82.13
2023-04-16T03:01:00.520Z,82.10
2023-04-16T03:03:28.956Z,81.81
2023-04-16T03:05:57.301Z,82.33
2023-04-16T03:08:25.647Z,81.84
2023-04-16T03:10:53.930Z,82.78
2023-04-16T03:13:23.639Z,83.25
2023-04-16T03:15:51.981Z,83.52
2023-04-16T03:18:20.369Z,83.43
2023-04-16T03:20:53.393Z,83.94
2023-04-16T03:23:21.837Z,84.04
2023-04-16T03:25:50.110Z,83.63
2023-04-16T03:28:19.975Z,84.33
2023-04-16T03:30:53.657Z,84.99
2023-04-16T03:33:22.785Z,85.15
2023-04-16T03:35:59.202Z,84.71
2023-04-16T03:38:30.956Z,84.50
2023-04-16T03:41:01.041Z,84.58
2023-04-16T03:43:32.216Z,85.70
2023-04-16T03:46:02.015Z,85.76
2023-04-16T03:48:30.671Z,86.54
2023-04-16T03:50:59.993Z,86.58
2023-04-16T03:53:28.556Z,86.20
2023-04-16T03:55:56.834Z,85.92
2023-04-16T03:58:25.557Z,85.83
2023-04-16T04:00:55.297Z,85.74
2023-04-16T04:03:26.268Z,86.29
2023-04-16T04:05:56.118Z,85.88
2023-04-16T04:08:30.792Z,85.56
2023-04-16T04:10:59.240Z,85.84
2023-04-16T04:13:28.234Z,86.03
2023-04-16T04:15:56.572Z,86.23
2023-04-16T04:18:26.755Z,86.47
2023-04-16T04:20:55.086Z,86.36
2023-04-16T04:23:27.365Z,86.93
2023-04-16T04:25:55.757Z,87.37
2023-04-16T04:28:24.168Z,86.88
2023-04-16T04:30:52.549Z,86.45
2023-04-16T04:33:21.222Z,86.43
2023-04-16T04:35:51.283Z,86.42
2023-04-16T04:38:21.212Z,86.33
2023-04-16T04:40:51.038Z,86.39
2023-04-16T04:43:20.735Z,86.20
2023-04-16T04:45:49.531Z,86.63
2023-04-16T04:48:18.818Z,86.71
2023-04-16T04:50:49.919Z,86.82
2023-04-16T04:53:18.263Z,87.46
2023-04-16T04:55:46.710Z,87.76
2023-04-16T04:58:15.868Z,88.04
2023-04-16T05:00:44.955Z,87.93
2023-04-16T05:03:13.862Z,88.64
2023-04-16T05:05:42.443Z,89.16
2023-04-16T05:08:12.084Z,89.13
2023-04-16T05:10:40.404Z,88.82
2023-04-16T05:13:08.642Z,89.57
2023-04-16T05:15:36.923Z,89.21
2023-04-16T05:18:05.672Z,88.99
2023-04-16T05:20:34.188Z,88.89
2023-04-16T05:23:02.458Z,88.46
2023-04-16T05:25:32.143Z,88.87
2023-04-16T05:28:00.468Z,88.56
2023-04-16T05:30:28.741Z,88.31
2023-04-16T05:32:57.055Z,88.90
2023-04-16T05:35:25.390Z,88.20
2023-04-16T05:37:53.717Z,88.19
2023-04-16T05:40:22.189Z,88.13
2023-04-16T05:42:51.835Z,89.30
2023-04-16T05:45:20.294Z,89.75
2023-04-16T05:47:48.687Z,90.30
2023-04-16T05:50:17.202Z,89.75
2023-04-16T05:52:45.822Z,89.85
2023-04-16T05:55:14.087Z,89.16
2023-04-16T05:57:42.410Z,89.24
2023-04-16T06:00:13.108Z,88.86
2023-04-16T06:02:41.576Z,89.02
2023-04-16T06:05:10.627Z,89.12
2023-04-16T06:07:39.130Z,89.03
2023-04-16T06:10:08.820Z,89.17
2023-04-16T06:12:37.624Z,88.73
2023-04-16T06:15:07.504Z,89.85
2023-04-16T06:17:37.288Z,89.66
2023-04-16T06:20:07.190Z,89.57
2023-04-16T06:22:35.852Z,89.42
2023-04-16T06:25:04.431Z,89.08
2023-04-16T06:27:32.937Z,89.71
2023-04-16T06:30:01.207Z,89.86
2023-04-16T06:32:29.642Z,89.31
2023-04-16T06:34:59.468Z,89.30
2023-04-16T06:37:27.795Z,89.98
2023-04-16T06:39:56.073Z,89.91
2023-04-16T06:42:24.908Z,89.25
2023-04-16T06:44:53.320Z,88.78
2023-04-16T06:47:21.736Z,88.59
2023-04-16T06:49:50.045Z,88.41
2023-04-16T06:52:19.802Z,88.02
2023-04-16T06:54:48.950Z,88.03
2023-04-16T06:57:17.305Z,88.33
2023-04-16T06:59:45.588Z,88.28
2023-04-16T07:02:14.086Z,88.20
2023-04-16T07:04:42.449Z,88.63
2023-04-16T07:07:10.818Z,88.99
2023-04-16T07:09:41.234Z,89.20
2023-04-16T07:12:09.624Z,89.46
2023-04-16T07:14:37.877Z,89.90
2023-04-16T07:17:06.228Z,89.82
2023-04-16T07:19:35.216Z,90.11
2023-04-16T07:22:04.083Z,90.45
2023-04-16T07:24:32.608Z,90.41
2023-04-16T07:27:02.229Z,90.61
2023-04-16T07:29:30.578Z,90.61
2023-04-16T07:31:59.109Z,90.58
2023-04-16T07:34:27.558Z,90.71
2023-04-16T07:36:55.784Z,90.98
2023-04-16T07:39:24.155Z,91.27
2023-04-16T07:41:52.572Z,91.16
2023-04-16T07:44:22.498Z,91.25
2023-04-16T07:46:51.130Z,91.35
2023-04-16T07:49:19.557Z,91.17
2023-04-16T07:51:49.460Z,91.05
2023-04-16T07:54:17.898Z,91.23
2023-04-16T07:56:46.262Z,91.16
2023-04-16T07:59:22.968Z,91.03
2023-04-16T08:01:55.024Z,91.03
2023-04-16T08:04:26.186Z,91.05
2023-04-16T08:06:56.605Z,91.22
2023-04-16T08:09:28.246Z,91.09
2023-04-16T08:11:56.730Z,90.42
2023-04-16T08:14:25.014Z,90.51
2023-04-16T08:16:54.814Z,90.11
2023-04-16T08:19:23.099Z,89.78
2023-04-16T08:21:51.516Z,90.19
2023-04-16T08:24:19.799Z,89.90
2023-04-16T08:26:48.115Z,89.77
2023-04-16T08:29:16.385Z,89.50
2023-04-16T08:31:44.976Z,89.42
2023-04-16T08:34:14.756Z,89.60
2023-04-16T08:36:43.047Z,89.29
2023-04-16T08:39:11.564Z,89.01
2023-04-16T08:41:44.781Z,88.71
2023-04-16T08:44:21.101Z,88.45
2023-04-16T08:46:49.804Z,89.03
2023-04-16T08:49:19.562Z,89.40
2023-04-16T08:51:55.643Z,88.93
2023-04-16T08:54:36.292Z,89.66
2023-04-16T08:57:08.447Z,90.19
2023-04-16T08:59:38.158Z,90.23
2023-04-16T09:02:07.689Z,89.93
2023-04-16T09:04:39.743Z,90.08
2023-04-16T09:07:10.814Z,89.94
2023-04-16T09:09:40.249Z,90.18
2023-04-16T09:12:10.036Z,90.01
2023-04-16T09:14:41.855Z,90.30
2023-04-16T09:17:11.153Z,90.23
2023-04-16T09:19:40.955Z,89.92
2023-04-16T09:22:09.482Z,89.39
2023-04-16T09:24:38.451Z,89.45
2023-04-16T09:27:06.982Z,89.43
2023-04-16T09:29:36.961Z,89.72
2023-04-16T09:32:07.018Z,89.74
2023-04-16T09:34:36.820Z,89.82
2023-04-16T09:37:19.103Z,89.49
2023-04-16T09:39:55.944Z,89.18
2023-04-16T09:42:27.383Z,88.89
2023-04-16T09:44:59.476Z,88.71
2023-04-16T09:47:41.473Z,88.50
2023-04-16T09:50:12.907Z,88.24
2023-04-16T09:52:46.138Z,87.95
2023-04-16T09:55:14.781Z,87.94
2023-04-16T09:57:43.078Z,88.07
2023-04-16T10:00:13.237Z,87.88
2023-04-16T10:02:42.878Z,87.74
2023-04-16T10:05:16.765Z,87.39
2023-04-16T10:07:48.738Z,87.47
2023-04-16T10:10:17.426Z,87.71
2023-04-16T10:12:45.941Z,87.87
2023-04-16T10:15:14.302Z,87.14
2023-04-16T10:17:43.737Z,87.16
2023-04-16T10:20:13.024Z,87.89
2023-04-16T10:22:42.019Z,88.39
2023-04-16T10:25:12.418Z,88.59
2023-04-16T10:27:41.967Z,88.85
2023-04-16T10:30:12.690Z,88.46
2023-04-16T10:32:41.862Z,88.37
2023-04-16T10:35:10.819Z,88.15
2023-04-16T10:37:39.311Z,87.92
2023-04-16T10:40:28.300Z,88.59
2023-04-16T10:42:58.241Z,88.61
2023-04-16T10:45:32.882Z,88.08
2023-04-16T10:48:06.155Z,88.40
2023-04-16T10:50:38.074Z,88.03
2023-04-16T10:53:25.019Z,87.80
2023-04-16T10:56:13.987Z,87.68
2023-04-16T10:58:42.950Z,88.83
2023-04-16T11:01:16.555Z,88.50
2023-04-16T11:03:48.132Z,88.46
2023-04-16T11:06:18.834Z,88.12
2023-04-16T11:08:54.638Z,87.72
2023-04-16T11:11:25.088Z,87.44
2023-04-16T11:13:57.836Z,87.77
2023-04-16T11:16:28.077Z,87.56
2023-04-16T11:18:57.099Z,87.40
2023-04-16T11:21:26.676Z,86.64
2023-04-16T11:23:55.220Z,86.33
2023-04-16T11:26:30.619Z,85.76
2023-04-16T11:29:00.215Z,85.21
2023-04-16T11:31:28.596Z,85.33
2023-04-16T11:34:00.965Z,84.70
2023-04-16T11:36:29.336Z,84.89
2023-04-16T11:39:04.527Z,84.37
2023-04-16T11:41:34.199Z,84.41
2023-04-16T11:44:18.243Z,84.24
2023-04-16T11:46:46.544Z,84.31
2023-04-16T11:49:15.535Z,83.75
2023-04-16T11:51:45.041Z,84.06
2023-04-16T11:54:21.368Z,84.11
2023-04-16T11:56:53.329Z,84.06
2023-04-16T11:59:23.939Z,83.51
2023-04-16T12:01:55.676Z,83.69
2023-04-16T12:04:27.103Z,84.00
2023-04-16T12:07:12.333Z,83.45
2023-04-16T12:09:42.495Z,83.42
2023-04-16T12:12:31.162Z,83.15
2023-04-16T12:15:03.174Z,83.13
2023-04-16T12:17:34.318Z,82.91
2023-04-16T12:20:06.050Z,82.58
2023-04-16T12:22:37.430Z,84.00
2023-04-16T12:25:09.055Z,83.60
2023-04-16T12:27:52.988Z,83.46
2023-04-16T12:30:24.510Z,83.69
2023-04-16T12:33:14.264Z,83.66
2023-04-16T12:35:45.027Z,83.82
2023-04-16T12:38:15.121Z,83.86
2023-04-16T12:40:43.782Z,83.70
2023-04-16T12:43:13.715Z,83.50
2023-04-16T12:45:42.534Z,84.06
2023-04-16T12:48:10.950Z,83.98
2023-04-16T12:50:39.905Z,84.34
2023-04-16T12:53:08.262Z,83.97
2023-04-16T12:55:36.920Z,85.01
2023-04-16T12:58:05.323Z,84.62
2023-04-16T13:00:35.013Z,84.68
2023-04-16T13:03:03.515Z,84.24
2023-04-16T13:05:31.944Z,84.27
2023-04-16T13:08:00.395Z,84.10
2023-04-16T13:10:28.834Z,84.24
2023-04-16T13:12:57.158Z,84.55
2023-04-16T13:15:25.499Z,84.34
2023-04-16T13:17:55.255Z,84.19
2023-04-16T13:20:24.628Z,83.90
2023-04-16T13:22:53.008Z,83.86
2023-04-16T13:25:21.460Z,83.51
2023-04-16T13:27:49.757Z,83.74
2023-04-16T13:30:18.241Z,83.41
2023-04-16T13:32:46.867Z,83.69
2023-04-16T13:35:16.606Z,83.47
2023-04-16T13:37:44.955Z,83.71
2023-04-16T13:40:13.738Z,83.60
2023-04-16T13:42:42.332Z,83.48
2023-04-16T13:45:11.290Z,83.04
2023-04-16T13:47:41.652Z,83.11
2023-04-16T13:50:11.249Z,83.32
2023-04-16T13:52:41.208Z,82.91
2023-04-16T13:55:10.608Z,82.66
2023-04-16T13:57:38.958Z,82.91
2023-04-16T14:00:13.220Z,82.38
2023-04-16T14:02:42.650Z,82.22
2023-04-16T14:05:11.311Z,81.69
2023-04-16T14:07:41.159Z,81.62
2023-04-16T14:10:11.370Z,81.78
2023-04-16T14:12:40.016Z,82.49
2023-04-16T14:15:10.555Z,83.47
2023-04-16T14:17:38.946Z,83.30
2023-04-16T14:20:08.745Z,83.08
2023-04-16T14:22:37.151Z,82.98
2023-04-16T14:25:08.110Z,83.05
2023-04-16T14:27:36.551Z,83.19
2023-04-16T14:30:07.744Z,83.32
2023-04-16T14:32:36.255Z,82.92
2023-04-16T14:35:05.355Z,83.08
2023-04-16T14:37:35.837Z,82.84
2023-04-16T14:40:07.924Z,82.86
2023-04-16T14:42:38.213Z,82.88
2023-04-16T14:45:08.439Z,82.90
2023-04-16T14:47:45.555Z,82.92
2023-04-16T14:50:14.858Z,83.07
2023-04-16T14:52:43.254Z,82.87
2023-04-16T14:55:11.658Z,83.23
2023-04-16T14:57:41.633Z,82.91
2023-04-16T15:00:11.991Z,82.91
2023-04-16T15:02:40.471Z,82.68
2023-04-16T15:05:10.524Z,82.36
2023-04-16T15:07:39.113Z,81.74
2023-04-16T15:10:09.331Z,82.66
2023-04-16T15:12:39.978Z,82.82
2023-04-16T15:15:09.462Z,83.61
2023-04-16T15:17:37.944Z,83.27
2023-04-16T15:20:09.157Z,82.47
2023-04-16T15:22:38.093Z,82.80
2023-04-16T15:25:07.644Z,82.60
2023-04-16T15:27:36.491Z,82.45
2023-04-16T15:30:07.515Z,82.42
2023-04-16T15:32:35.938Z,82.36
2023-04-16T15:35:04.889Z,82.00
2023-04-16T15:37:33.267Z,81.95
2023-04-16T15:40:01.864Z,81.74
2023-04-16T15:42:30.210Z,81.60
2023-04-16T15:44:58.509Z,81.75
2023-04-16T15:47:28.309Z,81.75
2023-04-16T15:49:56.775Z,81.54
2023-04-16T15:52:25.172Z,81.11
2023-04-16T15:54:53.450Z,81.29
2023-04-16T15:57:21.798Z,81.00
2023-04-16T16:00:03.511Z,80.95
2023-04-16T16:02:36.266Z,80.56
2023-04-16T16:05:05.442Z,80.62
2023-04-16T16:07:33.710Z,80.48
2023-04-16T16:10:02.048Z,80.36
2023-04-16T16:12:31.211Z,80.74
2023-04-16T16:14:59.798Z,80.95
2023-04-16T16:17:28.234Z,80.82
2023-04-16T16:19:59.266Z,80.47
2023-04-16T16:22:27.708Z,80.18
2023-04-16T16:24:57.656Z,80.19
2023-04-16T16:27:26.032Z,80.38
2023-04-16T16:29:54.375Z,80.29
2023-04-16T16:32:22.729Z,80.54
2023-04-16T16:34:51.037Z,80.40
2023-04-16T16:37:20.745Z,80.44
2023-04-16T16:39:49.017Z,80.68
2023-04-16T16:42:18.898Z,80.75
2023-04-16T16:44:48.893Z,80.76
2023-04-16T16:47:18.004Z,80.65
2023-04-16T16:49:46.656Z,80.27
2023-04-16T16:52:14.940Z,80.34
2023-04-16T16:54:44.584Z,80.37
2023-04-16T16:57:15.333Z,80.53
2023-04-16T16:59:43.484Z,80.86
2023-04-16T17:02:11.803Z,81.14
2023-04-16T17:04:40.317Z,82.25
2023-04-16T17:07:08.691Z,82.13
2023-04-16T17:09:38.560Z,81.95
2023-04-16T17:12:08.567Z,81.88
2023-04-16T17:14:36.929Z,82.86
2023-04-16T17:17:05.404Z,82.82
2023-04-16T17:19:33.712Z,82.73
2023-04-16T17:22:01.994Z,83.26
2023-04-16T17:24:30.387Z,82.87
2023-04-16T17:26:58.961Z,82.96
2023-04-16T17:29:28.758Z,82.81
2023-04-16T17:31:57.129Z,82.90
2023-04-16T17:34:25.530Z,82.66
2023-04-16T17:36:53.960Z,82.50
2023-04-16T17:39:22.310Z,81.87
2023-04-16T17:41:54.230Z,82.14
2023-04-16T17:44:25.554Z,82.16
2023-04-16T17:46:55.283Z,84.29
2023-04-16T17:49:23.760Z,83.97
2023-04-16T17:51:52.180Z,83.47
2023-04-16T17:54:20.598Z,83.43
2023-04-16T17:56:48.935Z,84.05
2023-04-16T17:59:17.232Z,83.96
2023-04-16T18:01:45.740Z,84.22
2023-04-16T18:04:15.994Z,83.90
2023-04-16T18:06:44.702Z,84.07
2023-04-16T18:09:14.397Z,84.05
2023-04-16T18:11:42.766Z,83.88
2023-04-16T18:14:13.488Z,83.92
2023-04-16T18:16:41.972Z,84.03
2023-04-16T18:19:10.280Z,83.62
2023-04-16T18:21:40.034Z,83.66
2023-04-16T18:24:10.038Z,83.69
2023-04-16T18:26:41.078Z,83.21
2023-04-16T18:29:09.789Z,83.88
2023-04-16T18:31:38.676Z,84.16
2023-04-16T18:34:07.201Z,85.80
2023-04-16T18:36:35.655Z,86.39
2023-04-16T18:39:05.925Z,85.94
2023-04-16T18:41:34.375Z,85.84
2023-04-16T18:44:02.785Z,86.91
2023-04-16T18:46:31.152Z,87.22
2023-04-16T18:48:59.984Z,87.50
2023-04-16T18:51:28.589Z,87.27
2023-04-16T18:53:57.063Z,88.15
2023-04-16T18:56:26.864Z,87.97
2023-04-16T18:58:55.263Z,87.64
2023-04-16T19:01:24.569Z,87.65
2023-04-16T19:03:53.139Z,87.90
2023-04-16T19:06:21.461Z,87.72
2023-04-16T19:08:49.691Z,87.60
2023-04-16T19:11:18.063Z,87.61
2023-04-16T19:13:47.792Z,87.37
2023-04-16T19:16:16.960Z,87.28
2023-04-16T19:18:45.585Z,86.68
2023-04-16T19:21:13.942Z,86.94
2023-04-16T19:23:42.656Z,86.88
2023-04-16T19:26:10.994Z,86.62
2023-04-16T19:28:39.674Z,86.49
2023-04-16T19:31:09.936Z,87.15
2023-04-16T19:33:38.472Z,87.26
2023-04-16T19:36:07.420Z,87.45
2023-04-16T19:38:35.790Z,87.14
2023-04-16T19:41:04.151Z,87.01
2023-04-16T19:43:32.479Z,86.84
2023-04-16T19:46:00.872Z,86.71
2023-04-16T19:48:31.786Z,86.75
2023-04-16T19:51:04.274Z,86.77
2023-04-16T19:53:34.091Z,87.21
2023-04-16T19:56:02.472Z,87.67
2023-04-16T19:58:30.786Z,87.38
2023-04-16T20:00:59.220Z,87.36
2023-04-16T20:03:27.675Z,87.08
2023-04-16T20:05:57.409Z,87.44
2023-04-16T20:08:25.958Z,87.43
2023-04-16T20:10:54.980Z,86.88
2023-04-16T20:13:23.400Z,87.07
2023-04-16T20:15:53.898Z,87.24
2023-04-16T20:18:22.358Z,87.08
2023-04-16T20:20:50.769Z,87.00
2023-04-16T20:23:20.527Z,86.55
2023-04-16T20:25:49.124Z,86.99
2023-04-16T20:28:21.339Z,87.00
2023-04-16T20:30:50.907Z,86.57
2023-04-16T20:33:19.478Z,86.63
2023-04-16T20:35:50.841Z,86.41
2023-04-16T20:38:23.939Z,86.73
2023-04-16T20:40:58.083Z,86.72
2023-04-16T20:43:29.538Z,86.78
2023-04-16T20:45:58.021Z,87.04
2023-04-16T20:48:26.481Z,87.04
2023-04-16T20:51:00.074Z,87.38
2023-04-16T20:53:30.246Z,87.43
2023-04-16T20:55:59.970Z,87.31
2023-04-16T20:58:28.351Z,87.38
2023-04-16T21:00:58.697Z,87.24
2023-04-16T21:03:27.138Z,87.22
2023-04-16T21:05:56.801Z,86.93
2023-04-16T21:08:25.784Z,86.77
2023-04-16T21:10:55.548Z,86.85
2023-04-16T21:13:23.918Z,86.96
2023-04-16T21:15:52.694Z,86.82
2023-04-16T21:18:21.146Z,86.78
2023-04-16T21:20:49.495Z,86.97
2023-04-16T21:23:17.915Z,86.65
2023-04-16T21:25:46.240Z,86.51
2023-04-16T21:28:15.988Z,86.66
2023-04-16T21:30:44.399Z,86.66
2023-04-16T21:33:13.007Z,86.65
2023-04-16T21:35:41.423Z,86.37
2023-04-16T21:38:09.691Z,86.37
2023-04-16T21:40:38.124Z,86.44
2023-04-16T21:43:06.490Z,86.58
2023-04-16T21:45:36.277Z,86.47
2023-04-16T21:48:04.849Z,87.37
2023-04-16T21:50:33.305Z,87.49
2023-04-16T21:53:04.462Z,87.36
2023-04-16T21:55:33.005Z,86.96
2023-04-16T21:58:01.370Z,86.84
2023-04-16T22:00:30.046Z,86.76
2023-04-16T22:03:00.038Z,86.22
2023-04-16T22:05:29.014Z,86.70
2023-04-16T22:07:57.333Z,87.02
2023-04-16T22:10:25.747Z,87.07
2023-04-16T22:12:54.890Z,87.10
2023-04-16T22:15:23.309Z,87.26
2023-04-16T22:17:51.764Z,87.26
2023-04-16T22:20:22.268Z,87.01
2023-04-16T22:22:52.740Z,86.90
2023-04-16T22:25:21.105Z,86.77
2023-04-16T22:27:49.452Z,86.69
2023-04-16T22:30:17.877Z,86.60
2023-04-16T22:32:46.392Z,86.83
2023-04-16T22:35:15.499Z,86.65
2023-04-16T22:37:45.528Z,86.62
2023-04-16T22:40:14.955Z,86.66
2023-04-16T22:42:43.413Z,86.42
2023-04-16T22:45:12.908Z,86.84
2023-04-16T22:47:41.649Z,86.37
2023-04-16T22:50:10.997Z,86.64
2023-04-16T22:52:39.324Z,86.62
2023-04-16T22:55:10.322Z,86.59
2023-04-16T22:57:38.758Z,86.19
2023-04-16T23:00:11.306Z,86.47
2023-04-16T23:02:39.752Z,86.20
2023-04-16T23:05:09.154Z,86.27
2023-04-16T23:07:37.496Z,86.71
2023-04-16T23:10:08.934Z,86.69
2023-04-16T23:12:38.102Z,86.82
2023-04-16T23:15:07.870Z,87.26
2023-04-16T23:17:36.323Z,87.48
2023-04-16T23:20:07.646Z,87.62
2023-04-16T23:22:36.011Z,87.64
2023-04-16T23:25:04.427Z,87.98
2023-04-16T23:27:34.183Z,87.93
2023-04-16T23:30:02.625Z,87.56
2023-04-16T23:32:31.036Z,87.39
2023-04-16T23:34:59.452Z,87.17
2023-04-16T23:37:27.950Z,87.14
2023-04-16T23:39:56.568Z,87.17
2023-04-16T23:42:24.922Z,87.30
2023-04-16T23:44:54.593Z,87.18
2023-04-16T23:47:23.546Z,86.99
2023-04-16T23:49:51.855Z,87.07
2023-04-16T23:52:20.629Z,87.84
2023-04-16T23:54:49.214Z,87.92
2023-04-16T23:57:17.486Z,87.53
2023-04-16T23:59:45.869Z,87.58
